Time;durP1;ratioP1;P1;durP2;ratioP2;P2;SDS_P1;SDS_P2;PMS_P1;PMS_P2;Temp;Humidity;BMP_temperature;BMP_pressure;BME280_temperature;BME280_humidity;BME280_pressure;Samples;Min_cycle;Max_cycle;Signal;HPM_P1;HPM_P2
2022/12/22 03:26:45;0.00;0.00;0.62;0.00;0.00;0.62;2.10;1.33;;;23.10;27.30;;;;;;2268658;61;20793;-67
2022/12/22 03:29:31;0.00;0.00;0.62;0.00;0.00;0.62;2.00;1.27;;;23.10;27.30;;;;;;2267991;61;20398;-67
2022/12/22 03:32:15;0.00;0.00;0.62;0.00;0.00;0.62;1.50;0.90;;;23.00;27.20;;;;;;2268276;61;20378;-68
2022/12/22 03:35:00;0.00;0.00;0.62;0.00;0.00;0.62;2.20;1.10;;;23.00;27.20;;;;;;2268646;61;20383;-68
2022/12/22 03:37:45;0.00;0.00;0.62;0.00;0.00;0.62;1.70;0.90;;;23.00;27.20;;;;;;2267459;61;20915;-68
2022/12/22 03:40:29;0.00;0.00;0.62;0.00;0.00;0.62;1.57;1.00;;;23.00;27.20;;;;;;2268775;61;20459;-68
2022/12/22 03:46:30;0.00;0.00;0.62;0.00;0.00;0.62;1.57;0.90;;;23.00;27.70;;;;;;2267921;61;20414;-68
2022/12/22 03:49:15;0.00;0.00;0.62;0.00;0.00;0.62;1.80;1.27;;;23.00;27.20;;;;;;2268585;61;20406;-68
2022/12/22 03:52:00;0.00;0.00;0.62;0.00;0.00;0.62;1.73;1.13;;;23.00;27.30;;;;;;2264424;61;20389;-67
2022/12/22 03:54:44;0.00;0.00;0.62;0.00;0.00;0.62;1.60;1.00;;;23.00;27.20;;;;;;2268501;61;20933;-67
2022/12/22 03:57:29;0.00;0.00;0.62;0.00;0.00;0.62;1.67;1.10;;;23.00;27.20;;;;;;2268542;61;20774;-67
2022/12/22 04:00:15;0.00;0.00;0.62;0.00;0.00;0.62;1.50;1.00;;;23.00;27.20;;;;;;2267232;61;20367;-67
2022/12/22 04:03:01;0.00;0.00;0.62;0.00;0.00;0.62;1.70;1.03;;;23.00;27.30;;;;;;2268453;61;20797;-67
2022/12/22 04:05:45;0.00;0.00;0.62;0.00;0.00;0.62;1.70;1.00;;;22.90;27.20;;;;;;2268071;61;20387;-67
2022/12/22 04:08:30;0.00;0.00;0.62;0.00;0.00;0.62;1.57;1.03;;;22.90;27.10;;;;;;2267880;61;20879;-67
2022/12/22 04:14:19;0.00;0.00;0.62;0.00;0.00;0.62;1.50;0.90;;;22.90;27.70;;;;;;2267716;61;20359;-67
2022/12/22 04:17:05;0.00;0.00;0.62;0.00;0.00;0.62;1.70;1.10;;;22.90;27.20;;;;;;2268291;61;20363;-67
2022/12/22 04:19:51;0.00;0.00;0.62;0.00;0.00;0.62;1.80;1.20;;;22.90;27.20;;;;;;2268637;61;20409;-68
2022/12/22 04:22:36;0.00;0.00;0.62;0.00;0.00;0.62;1.70;1.30;;;22.80;27.10;;;;;;2267420;61;20407;-68
2022/12/22 04:25:22;0.00;0.00;0.62;0.00;0.00;0.62;2.00;1.47;;;22.90;27.20;;;;;;2268427;61;20433;-68
2022/12/22 04:28:06;0.00;0.00;0.62;0.00;0.00;0.62;1.93;1.30;;;22.90;27.20;;;;;;2268004;61;20416;-66
2022/12/22 04:30:51;0.00;0.00;0.62;0.00;0.00;0.62;2.73;1.50;;;22.80;27.10;;;;;;2268196;61;20433;-67
2022/12/22 04:33:36;0.00;0.00;0.62;0.00;0.00;0.62;1.83;1.23;;;22.80;27.10;;;;;;2268095;61;20359;-66
2022/12/22 04:36:22;0.00;0.00;0.62;0.00;0.00;0.62;1.90;1.00;;;22.80;27.10;;;;;;2267630;61;20785;-67
2022/12/22 04:39:06;0.00;0.00;0.62;0.00;0.00;0.62;2.07;1.37;;;22.80;27.20;;;;;;2268345;61;20371;-66
2022/12/22 04:41:51;0.00;0.00;0.62;0.00;0.00;0.62;1.60;0.90;;;22.80;27.10;;;;;;2268028;61;20918;-66
2022/12/22 04:44:35;0.00;0.00;0.62;0.00;0.00;0.62;1.63;1.10;;;22.70;27.10;;;;;;2267315;61;20476;-66
2022/12/22 04:47:20;0.00;0.00;0.62;0.00;0.00;0.62;1.63;1.20;;;22.80;27.10;;;;;;2268485;61;20358;-67
2022/12/22 04:50:06;0.00;0.00;0.62;0.00;0.00;0.62;1.50;1.00;;;22.70;27.10;;;;;;2264880;61;20413;-67
2022/12/22 04:52:52;0.00;0.00;0.62;0.00;0.00;0.62;2.20;1.60;;;22.70;27.10;;;;;;2267730;61;20974;-67
2022/12/22 04:55:37;0.00;0.00;0.62;0.00;0.00;0.62;1.70;1.30;;;22.70;27.10;;;;;;2268293;61;20409;-67
2022/12/22 04:58:21;0.00;0.00;0.62;0.00;0.00;0.62;2.53;1.40;;;22.70;27.20;;;;;;2264649;61;20812;-67
2022/12/22 05:01:11;0.00;0.00;0.62;0.00;0.00;0.62;2.23;1.40;;;22.70;27.10;;;;;;2268021;61;20366;-67
2022/12/22 05:03:56;0.00;0.00;0.62;0.00;0.00;0.62;2.00;1.30;;;22.70;27.20;;;;;;2268061;61;20918;-67
2022/12/22 05:06:40;0.00;0.00;0.62;0.00;0.00;0.62;1.60;1.10;;;22.70;27.20;;;;;;2267428;61;20359;-67
2022/12/22 05:09:27;0.00;0.00;0.62;0.00;0.00;0.62;1.90;1.30;;;22.60;27.10;;;;;;2268415;61;20364;-67
2022/12/22 05:15:14;0.00;0.00;0.62;0.00;0.00;0.62;1.70;1.20;;;22.60;27.10;;;;;;2267481;61;20459;-67
2022/12/22 05:18:00;0.00;0.00;0.62;0.00;0.00;0.62;1.60;1.20;;;22.60;27.20;;;;;;2268108;61;20383;-66
2022/12/22 05:20:45;0.00;0.00;0.62;0.00;0.00;0.62;1.70;1.33;;;22.60;27.20;;;;;;2267826;61;20359;-66
2022/12/22 05:23:30;0.00;0.00;0.62;0.00;0.00;0.62;1.50;1.10;;;22.60;27.20;;;;;;2267980;61;20383;-67
2022/12/22 05:26:17;0.00;0.00;0.62;0.00;0.00;0.62;1.67;1.13;;;22.60;27.20;;;;;;2268167;61;20812;-68
2022/12/22 05:29:02;0.00;0.00;0.62;0.00;0.00;0.62;1.90;1.40;;;22.60;27.20;;;;;;2267365;61;20367;-65
2022/12/22 05:31:46;0.00;0.00;0.62;0.00;0.00;0.62;1.93;1.30;;;22.50;27.10;;;;;;2268297;61;20389;-66
2022/12/22 05:34:31;0.00;0.00;0.62;0.00;0.00;0.62;2.13;1.83;;;22.50;27.20;;;;;;2267894;61;20371;-66
2022/12/22 05:37:16;0.00;0.00;0.62;0.00;0.00;0.62;1.87;1.30;;;22.50;27.20;;;;;;2267557;61;20359;-66
2022/12/22 05:40:00;0.00;0.00;0.62;0.00;0.00;0.62;1.60;1.03;;;22.50;27.20;;;;;;2268149;61;20359;-66
2022/12/22 05:42:47;0.00;0.00;0.62;0.00;0.00;0.62;1.80;1.30;;;22.50;27.20;;;;;;2267569;61;20830;-66
2022/12/22 05:45:31;0.00;0.00;0.62;0.00;0.00;0.62;2.03;1.23;;;22.50;27.20;;;;;;2267854;61;20391;-67
2022/12/22 05:48:16;0.00;0.00;0.62;0.00;0.00;0.62;1.57;0.90;;;22.50;27.20;;;;;;2265036;61;20868;-67
2022/12/22 05:51:00;0.00;0.00;0.62;0.00;0.00;0.62;1.50;1.00;;;22.50;27.20;;;;;;2264127;61;20375;-66
2022/12/22 05:53:46;0.00;0.00;0.62;0.00;0.00;0.62;1.63;1.20;;;22.50;27.20;;;;;;2268312;61;20401;-66
2022/12/22 05:56:30;0.00;0.00;0.62;0.00;0.00;0.62;1.60;1.00;;;22.50;27.20;;;;;;2268818;61;20366;-68
2022/12/22 05:59:16;0.00;0.00;0.62;0.00;0.00;0.62;1.80;1.20;;;22.50;27.20;;;;;;2268189;61;20420;-66
2022/12/22 06:02:01;0.00;0.00;0.62;0.00;0.00;0.62;1.57;1.07;;;22.50;27.20;;;;;;2268704;61;20916;-66
2022/12/22 06:04:45;0.00;0.00;0.62;0.00;0.00;0.62;2.03;1.37;;;22.50;27.30;;;;;;2268431;61;21013;-67
2022/12/22 06:07:30;0.00;0.00;0.62;0.00;0.00;0.62;1.63;1.13;;;22.40;27.20;;;;;;2268475;61;20998;-67
2022/12/22 06:10:16;0.00;0.00;0.62;0.00;0.00;0.62;1.33;0.90;;;22.50;27.30;;;;;;2269024;61;20362;-67
2022/12/22 06:13:01;0.00;0.00;0.62;0.00;0.00;0.62;1.53;1.10;;;22.50;27.30;;;;;;2267701;61;20354;-67
2022/12/22 06:15:47;0.00;0.00;0.62;0.00;0.00;0.62;2.33;1.20;;;22.50;27.30;;;;;;2268810;61;20412;-67
2022/12/22 06:18:31;0.00;0.00;0.62;0.00;0.00;0.62;1.97;1.30;;;22.50;27.30;;;;;;2268942;61;20768;-67
2022/12/22 06:21:16;0.00;0.00;0.62;0.00;0.00;0.62;2.27;1.10;;;22.50;27.30;;;;;;2268055;61;20451;-66
2022/12/22 06:24:01;0.00;0.00;0.62;0.00;0.00;0.62;1.63;1.00;;;22.40;27.20;;;;;;2268673;61;20964;-66
2022/12/22 06:26:46;0.00;0.00;0.62;0.00;0.00;0.62;2.00;1.43;;;22.40;27.20;;;;;;2268524;61;20820;-67
2022/12/22 06:29:30;0.00;0.00;0.62;0.00;0.00;0.62;1.90;1.40;;;22.40;27.80;;;;;;2268512;61;20359;-66
2022/12/22 06:32:16;0.00;0.00;0.62;0.00;0.00;0.62;1.60;1.20;;;22.40;27.20;;;;;;2268577;61;20406;-67
2022/12/22 06:35:01;0.00;0.00;0.62;0.00;0.00;0.62;2.07;1.60;;;22.40;27.20;;;;;;2267850;61;20399;-67
2022/12/22 06:37:46;0.00;0.00;0.62;0.00;0.00;0.62;2.80;1.53;;;22.40;27.20;;;;;;2268440;61;20815;-67
2022/12/22 06:40:32;0.00;0.00;0.62;0.00;0.00;0.62;2.83;1.50;;;22.40;27.20;;;;;;2268677;61;20879;-67
2022/12/22 06:43:17;0.00;0.00;0.62;0.00;0.00;0.62;2.57;2.23;;;22.40;27.30;;;;;;2267537;61;20425;-67
2022/12/22 06:46:01;0.00;0.00;0.62;0.00;0.00;0.62;2.00;1.57;;;22.40;27.30;;;;;;2268794;61;20386;-66
2022/12/22 06:48:47;0.00;0.00;0.62;0.00;0.00;0.62;1.90;1.53;;;22.40;27.30;;;;;;2268446;61;20430;-67
2022/12/22 06:51:32;0.00;0.00;0.62;0.00;0.00;0.62;1.90;1.40;;;22.30;27.20;;;;;;2268302;61;20398;-67
2022/12/22 06:54:16;0.00;0.00;0.62;0.00;0.00;0.62;1.67;1.30;;;22.30;27.20;;;;;;2268730;61;20355;-67
2022/12/22 06:57:01;0.00;0.00;0.62;0.00;0.00;0.62;2.03;1.70;;;22.30;27.30;;;;;;2264662;61;20501;-67
2022/12/22 06:59:46;0.00;0.00;0.62;0.00;0.00;0.62;2.13;1.83;;;22.30;27.30;;;;;;2268897;61;20359;-67
2022/12/22 07:02:30;0.00;0.00;0.62;0.00;0.00;0.62;1.90;1.50;;;22.30;27.30;;;;;;2268412;61;20402;-67
2022/12/22 07:05:17;0.00;0.00;0.62;0.00;0.00;0.62;1.93;1.53;;;22.30;27.30;;;;;;2267593;61;20422;-68
2022/12/22 07:08:01;0.00;0.00;0.62;0.00;0.00;0.62;2.10;1.57;;;22.30;27.30;;;;;;2268658;61;20887;-68
2022/12/22 07:10:58;0.00;0.00;0.62;0.00;0.00;0.62;1.83;1.37;;;22.30;27.30;;;;;;2268341;61;20460;-67
2022/12/22 07:13:43;0.00;0.00;0.62;0.00;0.00;0.62;1.87;1.47;;;22.30;27.30;;;;;;2267985;61;20485;-67
2022/12/22 07:16:28;0.00;0.00;0.62;0.00;0.00;0.62;1.93;1.40;;;22.30;27.40;;;;;;2268695;61;20379;-67
2022/12/22 07:19:12;0.00;0.00;0.62;0.00;0.00;0.62;2.20;1.50;;;22.30;27.40;;;;;;2268002;61;20385;-67
2022/12/22 07:21:58;0.00;0.00;0.62;0.00;0.00;0.62;1.60;1.20;;;22.30;27.40;;;;;;2268696;61;20402;-67
2022/12/22 07:24:43;0.00;0.00;0.62;0.00;0.00;0.62;1.93;1.30;;;22.30;27.40;;;;;;2268565;61;20422;-67
2022/12/22 07:27:27;0.00;0.00;0.62;0.00;0.00;0.62;2.17;1.50;;;22.30;27.40;;;;;;2267776;61;20899;-67
2022/12/22 07:30:13;0.00;0.00;0.62;0.00;0.00;0.62;2.03;1.53;;;22.30;27.40;;;;;;2268607;61;20886;-67
2022/12/22 07:32:58;0.00;0.00;0.62;0.00;0.00;0.62;1.87;1.40;;;22.30;27.40;;;;;;2264867;61;20359;-66
2022/12/22 07:35:42;0.00;0.00;0.62;0.00;0.00;0.62;1.83;1.43;;;22.30;27.40;;;;;;2267912;61;20383;-67
2022/12/22 07:38:28;0.00;0.00;0.62;0.00;0.00;0.62;2.20;1.50;;;22.30;27.40;;;;;;2268498;61;20367;-67
2022/12/22 07:44:19;0.00;0.00;0.62;0.00;0.00;0.62;2.47;1.60;;;22.30;27.40;;;;;;2268376;61;20472;-66
2022/12/22 07:47:04;0.00;0.00;0.62;0.00;0.00;0.62;1.87;1.50;;;22.30;28.00;;;;;;2268430;61;20467;-66
2022/12/22 07:52:53;0.00;0.00;0.62;0.00;0.00;0.62;2.20;1.37;;;22.30;27.50;;;;;;2268413;61;20363;-64
2022/12/22 07:55:40;0.00;0.00;0.62;0.00;0.00;0.62;1.87;1.33;;;22.30;27.50;;;;;;2268263;61;20468;-66
2022/12/22 07:58:24;0.00;0.00;0.62;0.00;0.00;0.62;1.83;1.10;;;22.30;27.50;;;;;;2268100;61;20383;-66
2022/12/22 08:01:09;0.00;0.00;0.62;0.00;0.00;0.62;1.90;1.50;;;22.30;27.50;;;;;;2268589;61;20409;-65
2022/12/22 08:03:53;0.00;0.00;0.62;0.00;0.00;0.62;1.80;1.30;;;22.30;27.50;;;;;;2264350;61;20465;-65
2022/12/22 08:06:39;0.00;0.00;0.62;0.00;0.00;0.62;2.00;1.60;;;22.30;27.60;;;;;;2268575;61;20354;-64
2022/12/22 08:09:24;0.00;0.00;0.62;0.00;0.00;0.62;2.00;1.40;;;22.30;27.50;;;;;;2268554;61;20374;-65
2022/12/22 08:12:10;0.00;0.00;0.62;0.00;0.00;0.62;2.40;1.57;;;22.30;27.60;;;;;;2267522;61;20409;-67
2022/12/22 08:14:54;0.00;0.00;0.62;0.00;0.00;0.62;1.90;1.50;;;22.30;28.10;;;;;;2268416;61;20379;-64
2022/12/22 08:17:39;0.00;0.00;0.62;0.00;0.00;0.62;2.33;1.30;;;22.30;27.60;;;;;;2267973;61;20366;-65
2022/12/22 08:20:23;0.00;0.00;0.62;0.00;0.00;0.62;1.80;1.43;;;22.30;27.60;;;;;;2532412;45;20892;-66
2022/12/22 08:23:08;0.00;0.00;0.62;0.00;0.00;0.62;2.00;1.40;;;22.30;27.60;;;;;;2267758;61;20437;-65
2022/12/22 08:25:59;0.00;0.00;0.62;0.00;0.00;0.62;3.97;1.83;;;22.30;27.60;;;;;;2267400;61;20419;-65
2022/12/22 08:28:48;0.00;0.00;0.62;0.00;0.00;0.62;1.80;1.40;;;22.30;27.70;;;;;;2317401;57;20420;-61
2022/12/22 08:31:33;0.00;0.00;0.62;0.00;0.00;0.62;1.87;1.37;;;22.40;27.70;;;;;;2268408;61;20409;-65
2022/12/22 08:34:18;0.00;0.00;0.62;0.00;0.00;0.62;2.00;1.33;;;22.40;27.70;;;;;;2632534;45;21115;-64
2022/12/22 08:37:08;0.00;0.00;0.62;0.00;0.00;0.62;1.90;1.33;;;22.30;27.60;;;;;;2266963;61;20371;-65
2022/12/22 08:39:59;0.00;0.00;0.62;0.00;0.00;0.62;1.80;1.17;;;22.40;27.70;;;;;;2268186;61;20367;-64
2022/12/22 08:42:45;0.00;0.00;0.62;0.00;0.00;0.62;1.83;1.47;;;22.40;27.70;;;;;;2792989;45;20866;-65
2022/12/22 08:45:32;0.00;0.00;0.62;0.00;0.00;0.62;2.43;1.43;;;22.40;27.80;;;;;;2265160;61;20440;-64
2022/12/22 08:48:17;0.00;0.00;0.62;0.00;0.00;0.62;1.90;1.30;;;22.40;27.80;;;;;;2283810;61;20792;-65
2022/12/22 08:51:02;0.00;0.00;0.62;0.00;0.00;0.62;2.30;1.70;;;22.40;27.80;;;;;;2268500;61;20369;-67
2022/12/22 08:53:46;0.00;0.00;0.62;0.00;0.00;0.62;5.40;1.43;;;22.40;27.80;;;;;;2268147;61;20359;-65
2022/12/22 08:56:31;0.00;0.00;0.62;0.00;0.00;0.62;1.90;1.40;;;22.40;27.80;;;;;;2267318;61;20362;-64
2022/12/22 08:59:16;0.00;0.00;0.62;0.00;0.00;0.62;2.07;1.40;;;22.40;27.80;;;;;;2268430;61;20413;-66
2022/12/22 09:02:03;0.00;0.00;0.62;0.00;0.00;0.62;2.00;1.33;;;22.40;27.80;;;;;;2268053;61;20367;-63
2022/12/22 09:04:48;0.00;0.00;0.62;0.00;0.00;0.62;2.77;1.60;;;22.40;27.80;;;;;;2268026;61;20777;-64
2022/12/22 09:07:33;0.00;0.00;0.62;0.00;0.00;0.62;2.00;1.40;;;22.40;27.80;;;;;;2268482;61;20410;-63
2022/12/22 09:10:18;0.00;0.00;0.62;0.00;0.00;0.62;2.33;1.33;;;22.40;28.00;;;;;;2267812;61;20367;-63
2022/12/22 09:13:02;0.00;0.00;0.62;0.00;0.00;0.62;2.33;1.63;;;22.50;27.90;;;;;;2268418;61;20351;-66
2022/12/22 09:15:47;0.00;0.00;0.62;0.00;0.00;0.62;2.10;1.50;;;22.50;27.90;;;;;;2268272;61;20437;-65
2022/12/22 09:18:34;0.00;0.00;0.62;0.00;0.00;0.62;3.20;1.53;;;22.50;27.90;;;;;;2267501;61;20825;-66
2022/12/22 09:21:18;0.00;0.00;0.62;0.00;0.00;0.62;2.00;1.60;;;22.50;27.90;;;;;;2265018;61;20371;-65
2022/12/22 09:24:06;0.00;0.00;0.62;0.00;0.00;0.62;2.50;1.87;;;22.50;27.90;;;;;;2268007;61;20436;-65
2022/12/22 09:26:51;0.00;0.00;0.62;0.00;0.00;0.62;2.00;1.40;;;22.50;28.00;;;;;;2267639;61;20367;-66
2022/12/22 09:29:36;0.00;0.00;0.62;0.00;0.00;0.62;2.90;1.87;;;22.50;28.00;;;;;;2269084;61;20462;-66
2022/12/22 09:32:20;0.00;0.00;0.62;0.00;0.00;0.62;2.60;1.70;;;22.50;28.00;;;;;;2268809;61;20458;-64
2022/12/22 09:35:07;0.00;0.00;0.62;0.00;0.00;0.62;2.40;2.10;;;22.50;28.00;;;;;;2269432;61;20437;-66
2022/12/22 09:37:52;0.00;0.00;0.62;0.00;0.00;0.62;2.70;1.50;;;22.60;28.10;;;;;;2269501;61;20389;-66
2022/12/22 09:40:36;0.00;0.00;0.62;0.00;0.00;0.62;2.90;2.27;;;22.50;28.00;;;;;;2268686;61;20398;-62
2022/12/22 09:43:27;0.00;0.00;0.62;0.00;0.00;0.62;2.70;2.10;;;22.50;28.40;;;;;;2268378;61;20440;-64
2022/12/22 09:46:20;0.00;0.00;0.62;0.00;0.00;0.62;2.43;1.60;;;22.60;28.50;;;;;;2269211;61;20378;-66
2022/12/22 09:49:06;0.00;0.00;0.62;0.00;0.00;0.62;2.43;2.00;;;22.60;28.10;;;;;;2265872;61;20363;-66
2022/12/22 09:51:55;0.00;0.00;0.62;0.00;0.00;0.62;4.43;2.30;;;22.60;28.10;;;;;;2269515;61;20367;-66
2022/12/22 09:54:40;0.00;0.00;0.62;0.00;0.00;0.62;2.30;1.90;;;22.60;28.10;;;;;;2268801;61;20428;-68
2022/12/22 09:57:29;0.00;0.00;0.62;0.00;0.00;0.62;3.83;3.17;;;22.60;28.10;;;;;;2269540;61;20891;-66
2022/12/22 10:00:18;0.00;0.00;0.62;0.00;0.00;0.62;2.90;2.30;;;22.60;28.10;;;;;;2269579;61;20486;-68
2022/12/22 10:03:18;0.00;0.00;0.62;0.00;0.00;0.62;3.87;3.00;;;22.60;28.20;;;;;;2268655;61;20390;-68
2022/12/22 10:06:13;0.00;0.00;0.62;0.00;0.00;0.62;4.20;3.70;;;22.60;28.20;;;;;;2269702;61;20905;-66
2022/12/22 10:09:03;0.00;0.00;0.62;0.00;0.00;0.62;4.03;3.43;;;22.60;28.20;;;;;;2269263;61;20363;-63
2022/12/22 10:11:52;0.00;0.00;0.62;0.00;0.00;0.62;4.43;3.90;;;22.60;28.20;;;;;;2269353;61;20432;-66
2022/12/22 10:14:42;0.00;0.00;0.62;0.00;0.00;0.62;3.57;3.20;;;22.60;28.20;;;;;;2269524;61;20432;-66
2022/12/22 10:17:31;0.00;0.00;0.62;0.00;0.00;0.62;3.73;3.07;;;22.60;28.20;;;;;;2268471;61;20412;-68
2022/12/22 10:20:26;0.00;0.00;0.62;0.00;0.00;0.62;3.80;3.10;;;22.60;28.20;;;;;;2269821;61;20427;-64
2022/12/22 10:23:18;0.00;0.00;0.62;0.00;0.00;0.62;4.80;3.87;;;22.60;28.20;;;;;;2269162;61;20477;-64
2022/12/22 10:26:09;0.00;0.00;0.62;0.00;0.00;0.62;5.70;4.30;;;22.60;28.20;;;;;;2269029;61;20378;-66
2022/12/22 10:29:00;0.00;0.00;0.62;0.00;0.00;0.62;3.90;3.50;;;22.60;28.20;;;;;;2269657;61;20405;-65
2022/12/22 10:31:59;0.00;0.00;0.62;0.00;0.00;0.62;5.57;3.77;;;22.60;28.20;;;;;;2268743;61;20760;-66
2022/12/22 10:35:00;0.00;0.00;0.62;0.00;0.00;0.62;4.00;3.47;;;22.60;28.20;;;;;;2269316;61;20375;-68
2022/12/22 10:37:45;0.00;0.00;0.62;0.00;0.00;0.62;5.87;3.53;;;22.70;28.30;;;;;;2269418;61;20398;-69
2022/12/22 10:40:32;0.00;0.00;0.62;0.00;0.00;0.62;5.57;3.87;;;22.60;28.20;;;;;;2268156;61;20444;-67
2022/12/22 10:43:22;0.00;0.00;0.62;0.00;0.00;0.62;5.60;3.93;;;22.60;28.30;;;;;;2267422;61;20383;-65
2022/12/22 10:46:13;0.00;0.00;0.62;0.00;0.00;0.62;4.00;3.60;;;22.60;28.30;;;;;;2264426;61;20395;-65
2022/12/22 10:49:11;0.00;0.00;0.62;0.00;0.00;0.62;4.80;4.10;;;22.70;28.40;;;;;;2322171;57;20417;-63
2022/12/22 10:52:11;0.00;0.00;0.62;0.00;0.00;0.62;4.20;3.10;;;22.70;28.50;;;;;;2265294;61;20408;-65
2022/12/22 10:55:15;0.00;0.00;0.62;0.00;0.00;0.62;5.60;3.60;;;22.70;28.50;;;;;;2262255;61;20383;-62
2022/12/22 10:58:17;0.00;0.00;0.62;0.00;0.00;0.62;4.47;3.90;;;22.70;28.50;;;;;;2261511;61;20917;-69
2022/12/22 11:01:10;0.00;0.00;0.62;0.00;0.00;0.62;5.37;3.27;;;22.70;28.50;;;;;;2263510;61;20354;-66
2022/12/22 11:03:57;0.00;0.00;0.62;0.00;0.00;0.62;3.87;3.33;;;22.70;28.40;;;;;;2264698;61;20438;-66
2022/12/22 11:06:44;0.00;0.00;0.62;0.00;0.00;0.62;3.77;3.10;;;22.70;28.30;;;;;;2264711;61;20412;-67
2022/12/22 11:09:28;0.00;0.00;0.62;0.00;0.00;0.62;4.93;3.67;;;22.70;28.30;;;;;;2263632;61;20418;-68
2022/12/22 11:12:33;0.00;0.00;0.62;0.00;0.00;0.62;3.43;3.00;;;22.70;28.30;;;;;;2264655;61;20392;-68
2022/12/22 11:15:33;0.00;0.00;0.62;0.00;0.00;0.62;3.50;3.20;;;22.70;28.30;;;;;;2264217;61;20380;-67
2022/12/22 11:18:37;0.00;0.00;0.62;0.00;0.00;0.62;4.70;3.63;;;22.80;28.30;;;;;;2264419;61;20426;-66
2022/12/22 11:21:29;0.00;0.00;0.62;0.00;0.00;0.62;5.23;3.40;;;22.80;28.30;;;;;;2261404;61;20364;-68
2022/12/22 11:24:30;0.00;0.00;0.62;0.00;0.00;0.62;4.70;3.60;;;22.80;28.20;;;;;;2263468;61;20438;-65
2022/12/22 11:27:31;0.00;0.00;0.62;0.00;0.00;0.62;3.77;2.90;;;22.80;28.20;;;;;;2264615;61;20380;-67
2022/12/22 11:30:19;0.00;0.00;0.62;0.00;0.00;0.62;4.17;3.27;;;22.80;28.20;;;;;;2264120;61;20443;-65
2022/12/22 11:33:27;0.00;0.00;0.62;0.00;0.00;0.62;3.47;2.90;;;22.80;28.10;;;;;;2264157;61;20352;-67
2022/12/22 11:36:31;0.00;0.00;0.62;0.00;0.00;0.62;3.27;2.97;;;22.80;28.10;;;;;;2264626;61;20506;-66
2022/12/22 11:39:23;0.00;0.00;0.62;0.00;0.00;0.62;4.57;3.73;;;22.80;28.10;;;;;;2263764;61;20365;-66
2022/12/22 11:42:39;0.00;0.00;0.62;0.00;0.00;0.62;3.13;2.80;;;22.80;28.00;;;;;;2261288;61;20414;-66
2022/12/22 11:45:49;0.00;0.00;0.62;0.00;0.00;0.62;3.43;2.43;;;22.80;28.00;;;;;;2264024;61;20379;-65
2022/12/22 11:49:04;0.00;0.00;0.62;0.00;0.00;0.62;2.97;2.50;;;22.80;28.00;;;;;;2264714;61;20383;-67
2022/12/22 11:52:10;0.00;0.00;0.62;0.00;0.00;0.62;4.40;2.97;;;22.80;28.00;;;;;;2264454;61;20749;-68
2022/12/22 11:55:26;0.00;0.00;0.62;0.00;0.00;0.62;2.43;2.20;;;22.80;27.90;;;;;;2264136;61;20387;-66
2022/12/22 11:58:31;0.00;0.00;0.62;0.00;0.00;0.62;3.37;2.50;;;22.90;28.00;;;;;;2264384;61;20392;-67
2022/12/22 12:01:48;0.00;0.00;0.62;0.00;0.00;0.62;3.20;2.30;;;22.80;27.90;;;;;;2263786;61;20977;-65
2022/12/22 12:05:14;0.00;0.00;0.62;0.00;0.00;0.62;5.73;3.17;;;22.90;27.90;;;;;;2264445;61;20403;-67
2022/12/22 12:08:08;0.00;0.00;0.62;0.00;0.00;0.62;3.30;2.37;;;22.80;28.40;;;;;;2263871;61;20857;-68
2022/12/22 12:11:00;0.00;0.00;0.62;0.00;0.00;0.62;3.17;2.73;;;22.90;27.90;;;;;;2264551;61;20441;-67
2022/12/22 12:13:57;0.00;0.00;0.62;0.00;0.00;0.62;3.93;2.53;;;22.90;27.90;;;;;;2264588;61;20490;-67
2022/12/22 12:16:50;0.00;0.00;0.62;0.00;0.00;0.62;3.73;2.57;;;22.90;27.90;;;;;;2260650;61;20359;-66
2022/12/22 12:20:17;0.00;0.00;0.62;0.00;0.00;0.62;3.07;2.70;;;22.90;27.90;;;;;;2264795;61;20444;-66
2022/12/22 12:23:18;0.00;0.00;0.62;0.00;0.00;0.62;3.90;2.90;;;22.90;27.80;;;;;;2263323;61;20384;-67
2022/12/22 12:26:14;0.00;0.00;0.62;0.00;0.00;0.62;3.07;2.30;;;22.80;27.80;;;;;;2264453;61;20454;-65
2022/12/22 12:29:14;0.00;0.00;0.62;0.00;0.00;0.62;3.23;2.33;;;22.90;27.80;;;;;;2264218;61;20360;-67
2022/12/22 12:32:04;0.00;0.00;0.62;0.00;0.00;0.62;3.10;2.23;;;22.90;27.80;;;;;;2264048;61;20360;-65
2022/12/22 12:35:00;0.00;0.00;0.62;0.00;0.00;0.62;2.73;2.43;;;22.90;27.80;;;;;;2264475;61;20434;-66
2022/12/22 12:37:49;0.00;0.00;0.62;0.00;0.00;0.62;2.93;2.17;;;22.90;27.80;;;;;;2263544;61;20364;-66
2022/12/22 12:40:46;0.00;0.00;0.62;0.00;0.00;0.62;3.27;2.40;;;22.90;27.80;;;;;;2264493;61;20362;-66
2022/12/22 12:43:33;0.00;0.00;0.62;0.00;0.00;0.62;2.60;2.07;;;22.90;27.80;;;;;;2261149;61;20820;-68
2022/12/22 12:47:05;0.00;0.00;0.62;0.00;0.00;0.62;2.40;1.97;;;22.90;27.80;;;;;;2263672;61;20380;-67
2022/12/22 12:50:32;0.00;0.00;0.62;0.00;0.00;0.62;2.37;2.00;;;22.90;27.70;;;;;;2260569;61;20399;-66
2022/12/22 12:53:18;0.00;0.00;0.62;0.00;0.00;0.62;3.30;2.53;;;22.90;27.70;;;;;;2263155;61;20364;-67
2022/12/22 12:56:07;0.00;0.00;0.62;0.00;0.00;0.62;2.33;1.70;;;22.90;27.70;;;;;;2264441;61;20475;-66
2022/12/22 12:58:54;0.00;0.00;0.62;0.00;0.00;0.62;2.70;2.23;;;22.90;27.70;;;;;;2264093;61;20360;-67
2022/12/22 13:01:58;0.00;0.00;0.62;0.00;0.00;0.62;2.43;2.00;;;22.90;27.70;;;;;;2264053;61;20361;-66
2022/12/22 13:05:29;0.00;0.00;0.62;0.00;0.00;0.62;2.77;2.00;;;22.90;27.70;;;;;;2264321;61;20939;-65
2022/12/22 13:08:21;0.00;0.00;0.62;0.00;0.00;0.62;3.70;2.63;;;22.90;27.60;;;;;;2263296;61;20779;-66
2022/12/22 13:11:31;0.00;0.00;0.62;0.00;0.00;0.62;2.73;2.13;;;22.90;27.70;;;;;;2264507;61;20884;-67
2022/12/22 13:14:56;0.00;0.00;0.62;0.00;0.00;0.62;3.03;2.33;;;22.90;27.70;;;;;;2263706;61;20380;-67
2022/12/22 13:17:48;0.00;0.00;0.62;0.00;0.00;0.62;2.30;1.73;;;22.90;27.70;;;;;;2264346;61;20363;-67
2022/12/22 13:20:36;0.00;0.00;0.62;0.00;0.00;0.62;2.93;2.30;;;22.90;28.20;;;;;;2264274;61;20923;-67
2022/12/22 13:23:23;0.00;0.00;0.62;0.00;0.00;0.62;2.77;2.20;;;22.90;27.70;;;;;;2263538;61;20518;-66
2022/12/22 13:26:12;0.00;0.00;0.62;0.00;0.00;0.62;3.07;2.33;;;22.90;27.70;;;;;;2264319;61;20424;-66
2022/12/22 13:28:59;0.00;0.00;0.62;0.00;0.00;0.62;2.60;2.10;;;22.90;27.60;;;;;;2263506;61;20414;-66
2022/12/22 13:31:47;0.00;0.00;0.62;0.00;0.00;0.62;2.50;2.00;;;22.90;27.60;;;;;;2264150;61;20360;-65
2022/12/22 13:34:42;0.00;0.00;0.62;0.00;0.00;0.62;2.40;1.83;;;22.90;27.70;;;;;;2264158;61;20859;-67
2022/12/22 13:37:28;0.00;0.00;0.62;0.00;0.00;0.62;2.93;1.97;;;22.90;27.70;;;;;;2263203;61;20399;-66
2022/12/22 13:40:18;0.00;0.00;0.62;0.00;0.00;0.62;2.37;1.83;;;22.90;27.60;;;;;;2264293;61;20876;-65
2022/12/22 13:43:09;0.00;0.00;0.62;0.00;0.00;0.62;2.33;1.90;;;22.90;27.70;;;;;;2263765;61;20387;-65
2022/12/22 13:45:56;0.00;0.00;0.62;0.00;0.00;0.62;2.50;1.97;;;23.00;27.70;;;;;;2263717;61;20959;-66
2022/12/22 13:48:44;0.00;0.00;0.62;0.00;0.00;0.62;2.60;1.93;;;23.00;27.70;;;;;;2261173;61;20368;-68
2022/12/22 13:51:34;0.00;0.00;0.62;0.00;0.00;0.62;2.50;2.10;;;23.00;27.70;;;;;;2263613;61;20912;-65
2022/12/22 13:54:25;0.00;0.00;0.62;0.00;0.00;0.62;2.33;1.80;;;23.00;27.70;;;;;;2264427;61;20855;-64
2022/12/22 13:57:16;0.00;0.00;0.62;0.00;0.00;0.62;2.80;2.07;;;23.00;27.70;;;;;;2264208;61;20402;-66
2022/12/22 14:00:02;0.00;0.00;0.62;0.00;0.00;0.62;2.77;1.90;;;23.00;27.70;;;;;;2263495;61;20418;-66
2022/12/22 14:02:54;0.00;0.00;0.62;0.00;0.00;0.62;2.53;2.07;;;23.00;27.60;;;;;;2264098;61;20839;-67
2022/12/22 14:05:39;0.00;0.00;0.62;0.00;0.00;0.62;2.03;1.53;;;23.00;27.60;;;;;;2263968;61;20400;-67
2022/12/22 14:08:24;0.00;0.00;0.62;0.00;0.00;0.62;2.10;1.60;;;23.00;27.60;;;;;;2264129;61;20796;-67
2022/12/22 14:11:09;0.00;0.00;0.62;0.00;0.00;0.62;2.60;2.30;;;23.00;27.60;;;;;;2264291;61;20364;-65
2022/12/22 14:13:55;0.00;0.00;0.62;0.00;0.00;0.62;2.27;1.80;;;23.10;27.70;;;;;;2263217;61;20359;-65
2022/12/22 14:16:44;0.00;0.00;0.62;0.00;0.00;0.62;2.53;1.90;;;23.10;27.70;;;;;;2264867;61;20417;-65
2022/12/22 14:19:33;0.00;0.00;0.62;0.00;0.00;0.62;1.90;1.40;;;23.10;27.60;;;;;;2265164;61;20356;-68
2022/12/22 14:22:22;0.00;0.00;0.62;0.00;0.00;0.62;3.50;1.93;;;23.10;27.60;;;;;;2264276;61;20355;-67
2022/12/22 14:25:12;0.00;0.00;0.62;0.00;0.00;0.62;2.30;1.90;;;23.10;28.20;;;;;;2264697;61;20438;-68
2022/12/22 14:27:58;0.00;0.00;0.62;0.00;0.00;0.62;2.40;1.93;;;23.10;27.60;;;;;;2264565;61;20364;-64
2022/12/22 14:30:47;0.00;0.00;0.62;0.00;0.00;0.62;2.40;1.80;;;23.10;27.60;;;;;;2264543;61;20349;-64
2022/12/22 14:33:34;0.00;0.00;0.62;0.00;0.00;0.62;1.90;1.57;;;23.10;27.60;;;;;;2264662;61;20410;-66
2022/12/22 14:36:24;0.00;0.00;0.62;0.00;0.00;0.62;2.33;1.63;;;23.10;27.60;;;;;;2263809;61;20380;-65
2022/12/22 14:39:19;0.00;0.00;0.62;0.00;0.00;0.62;2.87;2.27;;;23.10;27.60;;;;;;2264702;61;20761;-68
2022/12/22 14:42:11;0.00;0.00;0.62;0.00;0.00;0.62;4.47;3.93;;;23.10;27.50;;;;;;2265859;61;20417;-67
2022/12/22 14:44:57;0.00;0.00;0.62;0.00;0.00;0.62;4.63;3.77;;;23.10;27.70;;;;;;2267742;61;20402;-69
2022/12/22 14:47:43;0.00;0.00;0.62;0.00;0.00;0.62;3.63;3.20;;;23.10;27.70;;;;;;2264975;61;20364;-70
2022/12/22 14:50:28;0.00;0.00;0.62;0.00;0.00;0.62;3.90;3.10;;;23.10;27.70;;;;;;2264250;61;20406;-65